Iowa City, Iowa
Current Conditions -  °F | °C
As of 11:52 AM on Monday 24 Nov 2014 (Local Time) from KIOW Reporting Station
Light Snow Light Snow  
Wind Chill: 10°   Ceiling: 1300
Heat Index: 26°   Visibility: 3mi
Dew Point: 23°   Wind: 26mph
Humidity: 88%   Direction: 280°W
Pressure: 29.53"   Gusts: 38mph
Location:  41.66°N, 91.53°W
Report Text: KIOW 241752Z AUTO 28023G33KT 3SM -SN BR BKN013 OVC021 M03/M05 A2953 RMK AO2 PK WND 29035/1730 UPB33E41SNE33B41 SLP006 P0000 60000 I1000 I6001 T10331050 11006 21033 51033
Loading
Personal Weather Stations






























Interactive Weather Map New forecast layout! Learn more

10-Day Weather Forecast

Advertisements
Track Severe Weather on mobile